Time;durP1;ratioP1;P1;durP2;ratioP2;P2;SDS_P1;SDS_P2;PMS_P1;PMS_P2;Temp;Humidity;BMP_temperature;BMP_pressure;BME280_temperature;BME280_humidity;BME280_pressure;Samples;Min_cycle;Max_cycle;Signal;HPM_P1;HPM_P2
2022/05/02 00:00:21;;;;;;;0.30;0.20;;;;;;;9.96;100.00;100498.19;5031894;28;21031;-51
2022/05/02 00:02:48;;;;;;;1.60;1.50;;;;;;;9.84;100.00;100500.25;5031833;28;20479;-51
2022/05/02 00:05:15;;;;;;;0.40;0.30;;;;;;;9.97;100.00;100494.63;5032278;28;20548;-50
2022/05/02 00:07:42;;;;;;;0.30;0.20;;;;;;;9.78;100.00;100494.19;5032019;28;20447;-51
2022/05/02 00:10:10;;;;;;;0.30;0.20;;;;;;;9.73;100.00;100496.06;5018754;28;20498;-50
2022/05/02 00:12:37;;;;;;;1.70;1.60;;;;;;;9.81;100.00;100493.22;5031430;28;20578;-50
2022/05/02 00:15:04;;;;;;;0.30;0.30;;;;;;;9.89;100.00;100485.97;5031966;28;20447;-51
2022/05/02 00:20:16;;;;;;;0.30;0.20;;;;;;;9.52;100.00;100480.59;5031904;28;20514;-51
2022/05/02 00:22:44;;;;;;;0.30;0.20;;;;;;;9.49;100.00;100481.53;5031644;28;20533;-51
2022/05/02 00:25:12;;;;;;;0.40;0.20;;;;;;;9.66;100.00;100481.19;5031845;28;20456;-51
2022/05/02 00:27:39;;;;;;;0.53;0.53;;;;;;;9.72;100.00;100477.50;5031745;28;20471;-50
2022/05/02 00:30:08;;;;;;;0.30;0.20;;;;;;;9.81;100.00;100479.97;5031627;28;20443;-51
2022/05/02 00:32:35;;;;;;;0.40;0.40;;;;;;;9.66;100.00;100483.81;5031871;28;20853;-50
2022/05/02 00:35:03;;;;;;;0.80;0.70;;;;;;;9.28;100.00;100468.72;5031849;28;20444;-51
2022/05/02 00:37:30;;;;;;;0.33;0.23;;;;;;;9.32;100.00;100464.22;5031603;28;20447;-51
2022/05/02 00:39:56;;;;;;;0.40;0.30;;;;;;;9.33;100.00;100468.63;5031734;28;20483;-51
2022/05/02 00:42:23;;;;;;;0.40;0.30;;;;;;;9.27;100.00;100466.09;5031399;28;20475;-51
2022/05/02 00:44:50;;;;;;;0.30;0.20;;;;;;;9.27;100.00;100466.97;5031865;28;20451;-51
2022/05/02 00:47:19;;;;;;;0.40;0.30;;;;;;;9.22;100.00;100460.91;5031737;28;20454;-51
2022/05/02 00:49:45;;;;;;;0.40;0.37;;;;;;;9.23;100.00;100459.13;5031659;28;20455;-50
2022/05/02 00:52:12;;;;;;;0.30;0.20;;;;;;;9.13;100.00;100450.47;5031324;28;21302;-51
2022/05/02 00:54:39;;;;;;;0.30;0.20;;;;;;;9.01;100.00;100453.34;5031490;28;20478;-51
2022/05/02 00:57:07;;;;;;;0.30;0.20;;;;;;;8.98;100.00;100456.94;5031469;28;20451;-50
2022/05/02 00:59:36;;;;;;;0.30;0.20;;;;;;;9.15;100.00;100444.22;5031376;28;20444;-51
2022/05/02 01:02:05;;;;;;;0.80;0.53;;;;;;;9.01;100.00;100453.34;5046706;28;20483;-51
2022/05/02 01:04:32;;;;;;;0.40;0.30;;;;;;;8.78;100.00;100451.16;5031523;28;20455;-51
2022/05/02 01:07:09;;;;;;;0.30;0.20;;;;;;;8.73;100.00;100455.66;5031207;28;20867;-50
2022/05/02 01:09:44;;;;;;;0.67;0.67;;;;;;;8.76;100.00;100460.88;5031333;28;20509;-50
2022/05/02 01:12:14;;;;;;;2.33;1.50;;;;;;;8.55;100.00;100467.47;5031624;28;20467;-51
2022/05/02 01:14:43;;;;;;;0.40;0.37;;;;;;;8.41;100.00;100462.41;5031559;28;20447;-51
2022/05/02 01:17:10;;;;;;;0.30;0.20;;;;;;;8.54;100.00;100453.34;5031527;28;20835;-51
2022/05/02 01:19:38;;;;;;;0.40;0.30;;;;;;;8.35;100.00;100456.31;5031281;28;20455;-51
2022/05/02 01:22:06;;;;;;;0.30;0.20;;;;;;;8.52;100.00;100449.84;5030975;28;20502;-50
2022/05/02 01:24:45;;;;;;;0.40;0.30;;;;;;;8.25;100.00;100450.28;5034524;28;20448;-51
2022/05/02 01:27:13;;;;;;;0.30;0.20;;;;;;;8.31;100.00;100453.69;5034774;28;20863;-51
2022/05/02 01:29:42;;;;;;;0.30;0.20;;;;;;;8.28;100.00;100452.88;5034783;28;20448;-50
2022/05/02 01:32:12;;;;;;;2.10;0.90;;;;;;;8.27;100.00;100459.94;5034743;28;20471;-51
2022/05/02 01:34:40;;;;;;;0.30;0.20;;;;;;;8.14;100.00;100454.88;5034598;28;20439;-51
2022/05/02 01:37:15;;;;;;;0.30;0.20;;;;;;;8.18;100.00;100456.56;5034738;28;20451;-50
2022/05/02 01:39:42;;;;;;;0.30;0.20;;;;;;;8.36;100.00;100456.31;5034756;28;20504;-51
2022/05/02 01:42:11;;;;;;;5.40;1.73;;;;;;;8.10;100.00;100459.34;5034298;28;20495;-51
2022/05/02 01:44:39;;;;;;;0.30;0.20;;;;;;;8.12;100.00;100446.97;5034551;28;20455;-50
2022/05/02 01:47:08;;;;;;;0.30;0.20;;;;;;;7.96;100.00;100451.63;5034295;28;20448;-51
2022/05/02 01:49:35;;;;;;;1.13;1.13;;;;;;;7.86;100.00;100463.25;5049937;28;20444;-51
2022/05/02 01:52:01;;;;;;;0.53;0.53;;;;;;;8.03;100.00;100457.69;5035073;28;20604;-51
2022/05/02 01:54:28;;;;;;;0.30;0.20;;;;;;;7.97;100.00;100453.38;5033074;28;20452;-50
2022/05/02 01:56:56;;;;;;;0.30;0.20;;;;;;;7.96;100.00;100456.94;5033211;28;20479;-50
2022/05/02 01:59:23;;;;;;;0.30;0.20;;;;;;;7.91;100.00;100453.44;5033221;28;20509;-50
2022/05/02 02:01:50;;;;;;;0.30;0.20;;;;;;;7.87;100.00;100454.41;5032898;28;20541;-51
2022/05/02 02:07:03;;;;;;;0.30;0.20;;;;;;;7.99;100.00;100453.34;5033058;28;20878;-51
2022/05/02 02:09:30;;;;;;;0.30;0.20;;;;;;;7.91;100.00;100452.59;5032866;28;20929;-50
2022/05/02 02:11:57;;;;;;;0.40;0.30;;;;;;;7.66;100.00;100457.34;5032702;28;20454;-50
2022/05/02 02:14:24;;;;;;;0.30;0.20;;;;;;;7.76;100.00;100451.03;5032898;28;20448;-50
2022/05/02 02:16:51;;;;;;;0.30;0.20;;;;;;;7.50;100.00;100450.53;5032968;28;20494;-51
2022/05/02 02:19:18;;;;;;;0.30;0.30;;;;;;;7.55;100.00;100454.00;5032986;28;20447;-50
2022/05/02 02:21:45;;;;;;;0.30;0.20;;;;;;;7.84;100.00;100443.88;5032876;28;20491;-51
2022/05/02 02:24:12;;;;;;;0.30;0.20;;;;;;;8.03;100.00;100449.75;5032636;28;20452;-51
2022/05/02 02:26:39;;;;;;;0.30;0.20;;;;;;;7.75;100.00;100448.41;5032734;28;20968;-51
2022/05/02 02:29:05;;;;;;;0.30;0.20;;;;;;;7.61;100.00;100448.63;5032890;28;20492;-51
2022/05/02 02:31:32;;;;;;;0.30;0.20;;;;;;;7.43;100.00;100447.09;5032832;28;20447;-49
2022/05/02 02:33:58;;;;;;;2.20;1.43;;;;;;;7.53;100.00;100450.47;5032241;28;20467;-51
2022/05/02 02:36:25;;;;;;;0.30;0.20;;;;;;;7.48;100.00;100454.97;5032201;28;20459;-51
2022/05/02 02:38:52;;;;;;;0.77;0.77;;;;;;;7.71;100.00;100452.88;5032453;28;20448;-50
2022/05/02 02:41:18;;;;;;;0.30;0.20;;;;;;;7.39;100.00;100451.53;5032273;28;21031;-51
2022/05/02 02:43:45;;;;;;;0.30;0.20;;;;;;;7.40;100.00;100452.41;5032421;28;21034;-51
2022/05/02 02:46:11;;;;;;;0.30;0.20;;;;;;;7.43;100.00;100442.69;5032670;28;20462;-51
2022/05/02 02:48:38;;;;;;;0.30;0.20;;;;;;;7.54;100.00;100442.56;5032475;28;20497;-51
2022/05/02 02:51:05;;;;;;;0.30;0.20;;;;;;;7.41;100.00;100435.69;5032521;28;20478;-50
2022/05/02 02:53:31;;;;;;;0.30;0.20;;;;;;;7.26;100.00;100441.13;4992395;28;1151386;-51
2022/05/02 02:55:58;;;;;;;0.30;0.20;;;;;;;7.06;100.00;100429.06;5033234;28;20217;-51
2022/05/02 02:58:24;;;;;;;0.30;0.30;;;;;;;7.10;100.00;100436.03;5033127;28;20482;-50
2022/05/02 03:00:52;;;;;;;0.30;0.20;;;;;;;7.13;100.00;100430.75;5033136;28;20905;-50
2022/05/02 03:03:19;;;;;;;0.30;0.20;;;;;;;7.10;100.00;100425.47;5033297;28;20506;-51
2022/05/02 03:06:04;;;;;;;0.30;0.20;;;;;;;7.29;100.00;100426.13;5033097;28;20479;-51
2022/05/02 03:08:41;;;;;;;0.30;0.20;;;;;;;7.09;100.00;100429.00;5019897;28;20440;-50
2022/05/02 03:11:08;;;;;;;0.30;0.20;;;;;;;7.33;100.00;100426.97;5031913;28;20516;-51
2022/05/02 03:13:35;;;;;;;0.30;0.20;;;;;;;7.23;100.00;100425.31;5032838;28;20471;-51
2022/05/02 03:16:02;;;;;;;0.40;0.30;;;;;;;7.38;100.00;100419.81;5032647;28;20452;-51
2022/05/02 03:18:29;;;;;;;0.30;0.20;;;;;;;7.27;100.00;100420.00;5032592;28;20456;-51
2022/05/02 03:20:56;;;;;;;0.30;0.20;;;;;;;7.25;100.00;100419.09;5032550;28;20519;-51
2022/05/02 03:23:23;;;;;;;1.13;1.13;;;;;;;7.15;100.00;100417.50;5032792;28;20503;-51
2022/05/02 03:25:49;;;;;;;0.30;0.20;;;;;;;7.21;100.00;100411.25;5032624;28;20447;-50
2022/05/02 03:28:17;;;;;;;0.30;0.20;;;;;;;7.30;100.00;100406.72;5032773;28;20509;-51
2022/05/02 03:30:44;;;;;;;0.30;0.20;;;;;;;7.15;100.00;100414.00;5032441;28;20443;-51
2022/05/02 03:33:10;;;;;;;0.30;0.20;;;;;;;7.22;100.00;100408.59;5032393;28;20468;-51
2022/05/02 03:35:37;;;;;;;0.30;0.20;;;;;;;7.01;100.00;100414.16;5032937;28;20853;-50
2022/05/02 03:38:04;;;;;;;0.30;0.20;;;;;;;6.86;100.00;100411.69;5031435;28;20940;-50
2022/05/02 03:40:30;;;;;;;0.30;0.20;;;;;;;7.08;100.00;100416.69;5032272;28;21019;-51
2022/05/02 03:42:57;;;;;;;0.70;0.70;;;;;;;7.11;100.00;100411.34;5032063;28;20476;-50
2022/05/02 03:45:23;;;;;;;0.30;0.20;;;;;;;6.87;100.00;100416.09;5032194;28;20464;-51
2022/05/02 03:47:50;;;;;;;0.30;0.20;;;;;;;6.92;100.00;100415.13;5032227;28;20458;-51
2022/05/02 03:50:17;;;;;;;0.30;0.20;;;;;;;6.98;100.00;100415.03;5032186;28;20505;-51
2022/05/02 03:52:43;;;;;;;0.30;0.20;;;;;;;6.88;100.00;100401.97;5032071;28;20464;-50
2022/05/02 03:55:10;;;;;;;0.40;0.33;;;;;;;6.86;100.00;100407.28;5032228;28;20444;-50
2022/05/02 03:57:37;;;;;;;0.30;0.20;;;;;;;7.01;100.00;100404.47;5032193;28;20510;-51
2022/05/02 04:00:04;;;;;;;0.30;0.20;;;;;;;7.30;100.00;100413.78;5032053;28;20490;-51
2022/05/02 04:02:31;;;;;;;0.40;0.30;;;;;;;7.18;100.00;100406.00;5032066;28;21017;-51
2022/05/02 04:04:58;;;;;;;0.30;0.20;;;;;;;7.32;100.00;100402.28;5032228;28;20464;-52
2022/05/02 04:07:24;;;;;;;0.30;0.20;;;;;;;7.19;100.00;100405.13;5047299;28;20965;-51
2022/05/02 04:09:51;;;;;;;0.30;0.20;;;;;;;7.11;100.00;100410.47;5045322;28;20444;-51
2022/05/02 04:12:18;;;;;;;0.30;0.20;;;;;;;7.07;100.00;100401.72;5032166;28;20518;-50
2022/05/02 04:14:44;;;;;;;0.30;0.20;;;;;;;7.02;100.00;100416.78;5032057;28;20451;-51
2022/05/02 04:17:12;;;;;;;0.30;0.20;;;;;;;7.10;100.00;100408.75;5044488;28;20497;-52
2022/05/02 04:19:38;;;;;;;0.57;0.57;;;;;;;6.91;100.00;100407.22;5048031;28;20451;-51
2022/05/02 04:22:05;;;;;;;0.67;0.67;;;;;;;7.03;100.00;100401.78;5032080;28;20487;-50
2022/05/02 04:24:31;;;;;;;1.53;1.37;;;;;;;7.02;100.00;100394.75;5031931;28;20448;-50
2022/05/02 04:26:58;;;;;;;0.30;0.20;;;;;;;6.78;100.00;100404.72;5032102;28;20455;-50
2022/05/02 04:29:25;;;;;;;0.30;0.20;;;;;;;7.03;100.00;100404.44;5031709;28;20483;-50
2022/05/02 04:31:52;;;;;;;0.40;0.30;;;;;;;7.58;100.00;100403.69;5044884;28;20523;-51
2022/05/02 04:34:18;;;;;;;0.80;0.80;;;;;;;7.50;100.00;100406.44;5032106;28;20561;-52
2022/05/02 04:36:45;;;;;;;0.30;0.20;;;;;;;7.37;100.00;100397.78;5031775;28;20451;-52
2022/05/02 04:39:11;;;;;;;0.40;0.30;;;;;;;7.34;100.00;100404.91;5031773;28;20502;-52
2022/05/02 04:41:38;;;;;;;0.30;0.20;;;;;;;7.45;100.00;100402.13;5031719;28;20484;-51
2022/05/02 04:44:05;;;;;;;0.30;0.20;;;;;;;7.39;100.00;100409.22;5031538;28;20468;-52
2022/05/02 04:46:31;;;;;;;1.20;1.20;;;;;;;7.62;100.00;100413.31;5031849;28;20551;-51
2022/05/02 04:48:58;;;;;;;0.30;0.20;;;;;;;8.13;100.00;100406.34;5031890;28;20510;-52
2022/05/02 04:51:25;;;;;;;0.43;0.40;;;;;;;8.50;100.00;100405.75;5031817;28;20447;-50
2022/05/02 04:53:51;;;;;;;0.73;0.73;;;;;;;8.52;100.00;100407.47;5018753;28;20515;-51
2022/05/02 04:56:18;;;;;;;2.10;2.00;;;;;;;8.61;100.00;100409.06;5031815;28;20800;-51
2022/05/02 04:58:45;;;;;;;0.30;0.20;;;;;;;8.98;100.00;100403.91;5033713;28;20501;-52
2022/05/02 05:01:12;;;;;;;0.30;0.20;;;;;;;9.26;100.00;100409.53;5035318;28;20898;-52
2022/05/02 05:03:39;;;;;;;0.30;0.20;;;;;;;9.71;100.00;100412.94;5042797;28;20466;-51
2022/05/02 05:06:06;;;;;;;0.30;0.20;;;;;;;9.93;100.00;100413.31;5041419;28;20443;-51
2022/05/02 05:08:32;;;;;;;0.30;0.20;;;;;;;10.20;100.00;100417.06;5035209;28;20447;-51
2022/05/02 05:11:11;;;;;;;0.30;0.20;;;;;;;10.22;100.00;100415.28;5035183;28;20486;-52
2022/05/02 05:16:20;;;;;;;2.00;1.90;;;;;;;10.56;99.91;100411.78;5035470;28;20525;-50
2022/05/02 05:16:55;;;;;;;0.40;0.40;;;;;;;10.74;99.51;100408.59;5035206;28;20490;-51
2022/05/02 05:19:25;;;;;;;0.40;0.30;;;;;;;10.99;98.77;100408.78;5035567;28;20448;-51
2022/05/02 05:22:14;;;;;;;0.43;0.40;;;;;;;11.09;97.52;100410.25;5050271;28;20545;-51
2022/05/02 05:25:20;;;;;;;0.40;0.30;;;;;;;11.36;97.04;100400.59;5034835;28;20505;-51
2022/05/02 05:28:07;;;;;;;0.30;0.20;;;;;;;11.56;96.66;100400.88;5034751;28;20451;-51
2022/05/02 05:30:44;;;;;;;0.30;0.20;;;;;;;11.71;95.76;100396.84;5035013;28;20444;-51
2022/05/02 05:33:34;;;;;;;5.03;1.90;;;;;;;11.87;94.45;100402.59;5035058;28;20467;-51
2022/05/02 05:36:08;;;;;;;0.30;0.20;;;;;;;11.78;94.81;100398.41;5021679;28;20494;-51
2022/05/02 05:39:08;;;;;;;0.30;0.20;;;;;;;11.83;94.66;100396.50;5034601;28;20858;-51
2022/05/02 05:41:50;;;;;;;0.40;0.30;;;;;;;11.90;94.17;100391.84;5011423;28;20491;-51
2022/05/02 05:44:40;;;;;;;0.60;0.60;;;;;;;12.00;94.77;100400.41;5022847;28;20455;-51
2022/05/02 05:47:22;;;;;;;0.30;0.30;;;;;;;11.86;94.78;100396.41;5034806;28;20487;-51
2022/05/02 05:50:03;;;;;;;0.30;0.20;;;;;;;12.17;94.67;100398.06;5034582;28;20470;-52
2022/05/02 05:52:48;;;;;;;0.30;0.20;;;;;;;12.56;92.31;100395.81;5034517;28;20500;-51
2022/05/02 05:55:30;;;;;;;0.43;0.40;;;;;;;12.72;91.19;100397.03;5034534;28;20792;-51
2022/05/02 05:57:59;;;;;;;0.30;0.20;;;;;;;12.76;90.94;100397.81;5034517;28;20451;-51
2022/05/02 06:00:30;;;;;;;0.30;0.20;;;;;;;12.70;90.66;100408.69;5034619;28;20455;-51
2022/05/02 06:03:03;;;;;;;1.27;0.57;;;;;;;13.01;90.00;100406.63;5034383;28;20526;-51
2022/05/02 06:05:35;;;;;;;3.37;0.73;;;;;;;13.32;88.87;100403.75;5034392;28;20444;-52
2022/05/02 06:08:20;;;;;;;0.73;0.73;;;;;;;13.18;88.63;100406.06;5034320;28;20502;-51
2022/05/02 06:10:49;;;;;;;0.30;0.30;;;;;;;13.07;89.85;100412.69;5034145;28;20529;-52
2022/05/02 06:13:18;;;;;;;1.03;0.93;;;;;;;12.90;89.98;100414.19;5034205;28;20467;-52
2022/05/02 06:18:57;;;;;;;0.30;0.20;;;;;;;13.05;90.05;100418.09;5034094;28;20451;-51
2022/05/02 06:21:24;;;;;;;0.30;0.20;;;;;;;12.80;91.00;100403.91;5020878;28;20992;-51
2022/05/02 06:23:51;;;;;;;0.77;0.77;;;;;;;12.95;91.57;100404.22;5033762;28;20537;-52
2022/05/02 06:26:22;;;;;;;0.30;0.20;;;;;;;13.42;89.29;100408.72;5020973;28;20861;-52
2022/05/02 06:28:50;;;;;;;0.50;0.50;;;;;;;13.50;90.41;100404.84;5033857;28;20451;-52
2022/05/02 06:31:37;;;;;;;0.30;0.20;;;;;;;13.43;90.66;100405.13;5034047;28;20448;-51
2022/05/02 06:34:06;;;;;;;4.20;1.47;;;;;;;13.79;89.40;100408.16;5033677;28;20546;-51
2022/05/02 06:36:38;;;;;;;0.40;0.20;;;;;;;13.11;91.43;100399.16;5033627;28;20487;-51
2022/05/02 06:39:30;;;;;;;0.30;0.20;;;;;;;13.23;92.48;100403.22;5033832;28;20484;-51
2022/05/02 06:42:15;;;;;;;0.30;0.20;;;;;;;13.48;92.18;100401.34;5033507;28;21058;-52
2022/05/02 06:44:44;;;;;;;15.93;1.37;;;;;;;13.51;91.83;100403.03;5033869;28;20512;-51
2022/05/02 06:47:30;;;;;;;1.13;1.13;;;;;;;13.28;93.33;100403.91;5033384;28;20447;-51
2022/05/02 06:50:01;;;;;;;0.43;0.40;;;;;;;13.59;91.79;100398.28;5033163;28;20443;-51
2022/05/02 06:52:38;;;;;;;0.30;0.20;;;;;;;13.77;92.45;100389.53;5033202;28;21042;-52
2022/05/02 06:55:05;;;;;;;0.83;0.83;;;;;;;13.72;92.83;100394.19;5033143;28;20817;-52
2022/05/02 06:58:17;;;;;;;0.70;0.70;;;;;;;13.80;92.53;100389.41;5033213;28;20482;-51
2022/05/02 07:00:52;;;;;;;0.93;0.93;;;;;;;14.20;91.22;100387.75;5000831;28;20487;-52
2022/05/02 07:03:42;;;;;;;0.50;0.50;;;;;;;14.03;91.22;100390.28;5033032;28;20898;-52
2022/05/02 07:06:19;;;;;;;1.23;0.83;;;;;;;14.06;91.63;100387.47;5033231;28;20479;-51
2022/05/02 07:09:04;;;;;;;0.30;0.30;;;;;;;14.19;91.01;100394.03;5033201;28;20447;-52
2022/05/02 07:11:52;;;;;;;4.03;1.10;;;;;;;14.10;91.83;100395.28;5032993;28;20791;-52
2022/05/02 07:14:50;;;;;;;0.53;0.50;;;;;;;14.43;89.62;100393.00;5032986;28;20448;-51
2022/05/02 07:17:29;;;;;;;0.40;0.30;;;;;;;14.64;89.78;100387.69;5033207;28;20472;-52
2022/05/02 07:20:03;;;;;;;1.53;1.43;;;;;;;14.55;90.11;100380.09;5032970;28;20491;-52
2022/05/02 07:22:36;;;;;;;10.60;1.43;;;;;;;15.17;87.74;100387.97;5032275;28;20618;-51
2022/05/02 07:25:19;;;;;;;0.30;0.20;;;;;;;14.66;88.86;100383.13;5033426;28;20881;-53
2022/05/02 07:27:49;;;;;;;0.30;0.20;;;;;;;14.45;91.38;100388.50;5032819;28;20483;-51
2022/05/02 07:30:20;;;;;;;0.40;0.30;;;;;;;15.20;88.35;100377.09;5032803;28;20510;-52
2022/05/02 07:32:47;;;;;;;0.33;0.27;;;;;;;14.89;89.04;100377.66;5032689;28;20537;-52
2022/05/02 07:35:14;;;;;;;0.30;0.20;;;;;;;15.07;88.62;100376.81;5032745;28;20448;-52
2022/05/02 07:37:43;;;;;;;0.30;0.23;;;;;;;15.05;87.93;100378.69;5032682;28;20452;-52
2022/05/02 07:40:16;;;;;;;1.10;1.10;;;;;;;15.34;87.14;100371.09;5032574;28;20482;-52
2022/05/02 07:42:44;;;;;;;0.93;0.93;;;;;;;15.21;88.79;100376.16;5032377;28;20518;-52
2022/05/02 07:45:13;;;;;;;0.40;0.30;;;;;;;15.31;87.93;100376.63;5032400;28;20455;-52
2022/05/02 07:47:45;;;;;;;0.30;0.30;;;;;;;15.35;88.29;100373.75;5032358;28;20448;-52
2022/05/02 07:50:12;;;;;;;0.83;0.83;;;;;;;15.44;87.06;100379.59;5032315;28;20443;-51
2022/05/02 07:52:42;;;;;;;0.47;0.47;;;;;;;15.04;88.31;100392.13;5042344;22;20520;-53
2022/05/02 07:55:10;;;;;;;0.30;0.20;;;;;;;15.10;87.42;100392.75;5028947;28;20455;-53
2022/05/02 07:57:38;;;;;;;0.30;0.20;;;;;;;15.22;86.01;100388.66;5032412;28;20833;-53
2022/05/02 08:00:07;;;;;;;0.30;0.20;;;;;;;15.22;85.57;100391.31;5032016;28;20451;-53
2022/05/02 08:02:34;;;;;;;0.77;0.77;;;;;;;15.49;84.60;100386.50;5032104;28;20857;-53
2022/05/02 08:05:03;;;;;;;0.33;0.20;;;;;;;15.41;83.77;100384.16;5030804;28;20534;-53
2022/05/02 08:07:42;;;;;;;0.30;0.20;;;;;;;15.59;84.21;100390.47;5032245;28;20448;-53
2022/05/02 08:10:40;;;;;;;0.30;0.20;;;;;;;15.84;82.66;100386.63;5031791;28;20494;-53
2022/05/02 08:13:35;;;;;;;0.97;0.97;;;;;;;16.02;82.50;100390.22;5047355;28;20480;-53
2022/05/02 08:16:19;;;;;;;1.13;1.03;;;;;;;16.38;81.88;100382.13;5028839;28;20452;-53
2022/05/02 08:19:09;;;;;;;1.30;0.90;;;;;;;16.30;80.92;100380.69;5031884;28;20501;-53
2022/05/02 08:21:50;;;;;;;0.30;0.20;;;;;;;16.33;81.23;100378.84;5007138;28;20447;-53
2022/05/02 08:27:16;;;;;;;0.30;0.20;;;;;;;16.40;82.16;100383.78;5031799;28;20443;-53
2022/05/02 08:30:02;;;;;;;0.40;0.30;;;;;;;16.65;80.97;100390.59;5006830;28;20453;-53
2022/05/02 08:32:52;;;;;;;1.40;1.40;;;;;;;16.61;79.92;100392.56;5032125;28;20493;-53
2022/05/02 08:35:22;;;;;;;0.30;0.20;;;;;;;16.68;80.63;100383.28;5035778;28;20505;-53
2022/05/02 08:38:11;;;;;;;0.30;0.20;;;;;;;16.76;79.40;100380.19;5035844;28;20964;-53
2022/05/02 08:40:40;;;;;;;0.40;0.30;;;;;;;17.24;77.84;100381.19;5035993;28;20493;-53
2022/05/02 08:43:16;;;;;;;0.40;0.37;;;;;;;17.33;75.62;100381.56;5028058;28;20549;-53
2022/05/02 08:46:43;;;;;;;0.30;0.20;;;;;;;16.95;73.24;100380.06;5035810;28;20443;-53
2022/05/02 08:49:33;;;;;;;0.30;0.20;;;;;;;17.41;72.60;100375.78;5025109;28;20505;-52
2022/05/02 08:52:41;;;;;;;0.47;0.47;;;;;;;17.32;73.12;100381.66;5035278;28;20962;-53
2022/05/02 08:55:18;;;;;;;0.37;0.30;;;;;;;17.07;73.93;100374.06;5034786;28;20944;-53
2022/05/02 08:58:29;;;;;;;0.40;0.37;;;;;;;17.33;73.30;100378.00;5035355;28;20498;-53
2022/05/02 09:01:14;;;;;;;0.67;0.43;;;;;;;17.60;71.88;100370.22;5025256;28;21018;-53
2022/05/02 09:04:28;;;;;;;0.50;0.50;;;;;;;17.66;73.98;100367.19;5035230;28;20495;-54
2022/05/02 09:07:23;;;;;;;0.67;0.67;;;;;;;17.62;72.37;100371.88;5035581;28;20447;-53
2022/05/02 09:09:59;;;;;;;0.40;0.37;;;;;;;17.71;73.16;100366.03;5050361;28;21026;-53
2022/05/02 09:12:47;;;;;;;0.50;0.50;;;;;;;17.45;72.33;100367.44;5035201;28;20505;-53
2022/05/02 09:15:34;;;;;;;1.83;1.83;;;;;;;17.61;73.48;100361.22;5014706;28;20448;-53
2022/05/02 09:18:22;;;;;;;0.40;0.30;;;;;;;17.47;72.73;100357.47;5035129;28;20952;-53
2022/05/02 09:21:23;;;;;;;0.40;0.40;;;;;;;18.01;73.35;100362.53;5035133;28;20505;-53
2022/05/02 09:23:57;;;;;;;0.37;0.20;;;;;;;17.93;70.81;100360.25;5027725;28;20996;-53
2022/05/02 09:27:04;;;;;;;1.87;1.37;;;;;;;17.59;72.13;100360.44;5011213;28;20525;-53
2022/05/02 09:29:51;;;;;;;0.40;0.40;;;;;;;16.99;74.32;100362.84;5029380;28;20490;-53
2022/05/02 09:32:45;;;;;;;0.40;0.37;;;;;;;16.84;72.75;100362.72;5034755;28;20493;-53
2022/05/02 09:35:31;;;;;;;0.40;0.20;;;;;;;16.96;73.52;100354.97;5034782;28;20502;-54
2022/05/02 09:38:23;;;;;;;0.63;0.63;;;;;;;17.03;72.31;100353.69;5034629;28;20501;-53
2022/05/02 09:41:14;;;;;;;0.40;0.20;;;;;;;16.81;73.20;100357.50;5032512;28;20578;-54
2022/05/02 09:50:07;;;;;;;1.00;1.00;;;;;;;17.66;71.74;100341.16;5034407;28;20934;-53
2022/05/02 09:52:52;;;;;;;2.10;0.97;;;;;;;17.48;69.39;100345.78;5034353;28;20479;-53
2022/05/02 09:58:34;;;;;;;0.33;0.20;;;;;;;17.59;70.15;100339.78;5034316;28;20566;-54
2022/05/02 10:01:21;;;;;;;1.17;1.17;;;;;;;17.86;67.69;100336.50;5034681;28;20893;-53
2022/05/02 10:04:14;;;;;;;0.60;0.50;;;;;;;18.09;66.76;100337.84;5011922;28;20523;-53
2022/05/02 10:06:54;;;;;;;0.40;0.40;;;;;;;18.09;66.62;100322.56;5034234;28;20451;-53
2022/05/02 10:09:33;;;;;;;0.50;0.40;;;;;;;18.35;67.46;100315.63;5034121;28;20451;-53
2022/05/02 10:12:06;;;;;;;0.40;0.23;;;;;;;18.61;65.61;100320.28;5034228;28;20482;-53
2022/05/02 10:15:16;;;;;;;0.40;0.30;;;;;;;18.93;66.17;100310.28;5034122;28;20472;-53
2022/05/02 10:18:30;;;;;;;0.40;0.30;;;;;;;18.82;64.76;100315.47;5032138;28;20514;-53
2022/05/02 10:21:04;;;;;;;0.43;0.40;;;;;;;18.66;63.91;100308.44;4960206;28;20505;-53
2022/05/02 10:24:06;;;;;;;0.40;0.30;;;;;;;18.87;64.62;100310.63;4943360;29;20496;-53
2022/05/02 10:26:48;;;;;;;0.90;0.90;;;;;;;18.63;65.10;100307.63;4992514;28;20493;-53
2022/05/02 10:29:27;;;;;;;0.40;0.20;;;;;;;18.73;65.07;100312.47;5034018;28;20444;-53
2022/05/02 10:32:05;;;;;;;0.50;0.50;;;;;;;18.59;66.83;100299.81;5033877;28;20448;-53
2022/05/02 10:34:33;;;;;;;0.40;0.20;;;;;;;18.69;66.65;100309.09;5034052;28;20444;-53
2022/05/02 10:37:07;;;;;;;0.40;0.20;;;;;;;19.24;65.09;100290.31;5033461;28;20968;-53
2022/05/02 10:39:45;;;;;;;0.40;0.20;;;;;;;19.18;64.71;100290.69;5033667;28;20447;-53
2022/05/02 10:42:19;;;;;;;0.73;0.73;;;;;;;19.32;63.40;100283.56;5025879;28;20455;-54
2022/05/02 10:45:01;;;;;;;0.53;0.53;;;;;;;19.33;64.93;100285.31;5033548;28;20430;-53
2022/05/02 10:47:41;;;;;;;0.40;0.30;;;;;;;19.17;63.26;100286.28;5032527;28;20511;-53
2022/05/02 10:50:19;;;;;;;0.40;0.30;;;;;;;19.27;63.63;100278.47;5033359;28;20952;-53
2022/05/02 10:52:46;;;;;;;0.40;0.40;;;;;;;19.34;64.69;100277.13;5033221;28;20540;-53
2022/05/02 10:55:15;;;;;;;3.20;2.00;;;;;;;19.05;62.74;100278.09;5032521;28;20455;-53
2022/05/02 10:57:51;;;;;;;0.40;0.20;;;;;;;19.16;63.62;100278.28;5033280;28;20482;-53
2022/05/02 11:00:19;;;;;;;0.67;0.67;;;;;;;19.17;61.96;100280.88;5033201;28;20493;-53
2022/05/02 11:03:07;;;;;;;2.10;1.17;;;;;;;18.94;62.33;100268.91;5033144;28;20561;-53
2022/05/02 11:05:54;;;;;;;1.23;1.23;;;;;;;19.31;61.05;100269.22;5013855;28;20936;-53
2022/05/02 11:08:37;;;;;;;0.83;0.83;;;;;;;19.50;61.41;100266.19;5033265;28;20472;-53
2022/05/02 11:11:07;;;;;;;0.73;0.73;;;;;;;19.22;62.57;100262.59;5032932;28;20517;-53
2022/05/02 11:13:39;;;;;;;0.40;0.20;;;;;;;19.27;61.70;100273.06;5033560;28;20542;-54
2022/05/02 11:16:16;;;;;;;0.40;0.20;;;;;;;19.62;62.29;100254.63;5032842;28;20455;-54
2022/05/02 11:22:21;;;;;;;0.40;0.20;;;;;;;19.49;60.13;100265.31;5017425;28;20518;-53
2022/05/02 11:25:06;;;;;;;0.60;0.60;;;;;;;19.41;60.67;100258.69;5025192;28;20426;-53
2022/05/02 11:27:41;;;;;;;0.80;0.80;;;;;;;19.64;60.11;100251.84;5032717;28;20586;-53
2022/05/02 11:30:10;;;;;;;1.60;1.50;;;;;;;20.21;58.17;100256.94;5032794;28;20868;-53
2022/05/02 11:32:51;;;;;;;0.40;0.20;;;;;;;19.92;59.27;100254.41;5032391;28;20468;-53
2022/05/02 11:35:28;;;;;;;4.77;1.43;;;;;;;20.34;57.89;100247.88;5032913;28;20448;-53
2022/05/02 11:38:16;;;;;;;0.40;0.20;;;;;;;19.92;58.37;100253.53;5032790;28;20874;-53
2022/05/02 11:40:50;;;;;;;0.40;0.30;;;;;;;19.71;56.88;100245.91;5047500;28;20502;-53
2022/05/02 11:43:23;;;;;;;1.87;1.77;;;;;;;19.96;56.58;100238.84;5018742;28;20491;-53
2022/05/02 11:46:14;;;;;;;0.40;0.30;;;;;;;19.93;56.11;100245.34;5008087;28;20503;-53
2022/05/02 11:49:18;;;;;;;0.63;0.63;;;;;;;19.79;55.49;100234.63;5032408;28;20534;-53
2022/05/02 11:51:51;;;;;;;0.53;0.53;;;;;;;19.99;56.59;100241.34;5032392;28;20951;-53
2022/05/02 11:54:27;;;;;;;0.60;0.50;;;;;;;20.18;55.86;100241.81;5031485;28;20487;-53
2022/05/02 11:56:58;;;;;;;0.40;0.20;;;;;;;19.88;57.37;100236.69;5032581;28;20995;-53
2022/05/02 11:59:39;;;;;;;0.60;0.60;;;;;;;20.22;56.08;100239.75;5032432;28;20455;-53
2022/05/02 12:02:18;;;;;;;0.50;0.50;;;;;;;20.28;56.90;100228.53;5032562;28;20447;-53
2022/05/02 12:04:51;;;;;;;0.60;0.60;;;;;;;20.21;56.78;100227.25;5032289;28;20462;-53
2022/05/02 12:07:28;;;;;;;0.40;0.20;;;;;;;20.08;55.84;100230.78;5032166;28;20798;-53
2022/05/02 12:10:07;;;;;;;0.57;0.30;;;;;;;20.13;56.52;100233.16;5031973;28;20489;-53
2022/05/02 12:12:35;;;;;;;0.63;0.63;;;;;;;20.11;55.44;100229.69;5032298;28;20494;-53
2022/05/02 12:15:04;;;;;;;0.97;0.97;;;;;;;20.60;55.90;100231.72;5032182;28;20475;-53
2022/05/02 12:17:30;;;;;;;0.50;0.50;;;;;;;20.48;55.17;100236.16;5031951;28;20448;-53
2022/05/02 12:19:57;;;;;;;7.23;1.27;;;;;;;20.49;54.19;100220.81;5032069;28;20467;-53
2022/05/02 12:22:26;;;;;;;0.50;0.43;;;;;;;20.89;54.04;100232.31;5031745;28;20542;-53